createdAt,value
2019-03-12T00:01:29.614Z,10.20
2019-03-12T00:03:58.687Z,10.63
2019-03-12T00:06:27.506Z,8.20
2019-03-12T00:08:55.907Z,9.57
2019-03-12T00:11:24.053Z,8.17
2019-03-12T00:13:52.407Z,5.93
2019-03-12T00:16:20.936Z,6.00
2019-03-12T00:18:49.248Z,8.33
2019-03-12T00:21:17.494Z,8.10
2019-03-12T00:23:45.864Z,8.30
2019-03-12T00:26:14.055Z,11.37
2019-03-12T00:28:42.480Z,15.53
2019-03-12T00:31:11.203Z,7.50
2019-03-12T00:33:39.351Z,3.70
2019-03-12T00:36:07.708Z,4.20
2019-03-12T00:38:36.200Z,5.00
2019-03-12T00:41:04.279Z,4.67
2019-03-12T00:43:32.506Z,2.97
2019-03-12T00:46:00.911Z,4.90
2019-03-12T00:48:29.457Z,6.33
2019-03-12T00:50:57.646Z,6.77
2019-03-12T00:53:26.084Z,5.03
2019-03-12T00:55:54.523Z,5.03
2019-03-12T00:58:22.747Z,4.50
2019-03-12T01:00:51.024Z,5.23
2019-03-12T01:03:19.236Z,5.83
2019-03-12T01:05:48.754Z,7.37
2019-03-12T01:08:17.006Z,7.00
2019-03-12T01:10:45.177Z,7.33
2019-03-12T01:13:14.424Z,6.30
2019-03-12T01:15:42.924Z,6.67
2019-03-12T01:18:13.707Z,5.80
2019-03-12T01:20:41.031Z,5.93
2019-03-12T01:23:09.334Z,6.17
2019-03-12T01:25:37.696Z,6.10
2019-03-12T01:28:05.987Z,4.60
2019-03-12T01:30:34.399Z,5.27
2019-03-12T01:33:02.849Z,7.63
2019-03-12T01:35:31.414Z,8.13
2019-03-12T01:37:59.815Z,13.97
2019-03-12T01:40:28.179Z,6.80
2019-03-12T01:42:56.886Z,9.50
2019-03-12T01:45:25.350Z,6.70
2019-03-12T01:47:53.691Z,7.37
2019-03-12T01:50:21.981Z,7.40
2019-03-12T01:52:50.148Z,7.67
2019-03-12T01:55:18.559Z,8.33
2019-03-12T01:57:47.129Z,7.43
2019-03-12T02:00:16.594Z,8.20
2019-03-12T02:02:45.006Z,9.10
2019-03-12T02:05:13.360Z,11.60
2019-03-12T02:07:42.902Z,10.70
2019-03-12T02:10:11.744Z,10.43
2019-03-12T02:12:40.352Z,16.53
2019-03-12T02:15:10.144Z,12.60
2019-03-12T02:17:38.743Z,8.33
2019-03-12T02:20:08.743Z,9.20
2019-03-12T02:22:37.185Z,10.00
2019-03-12T02:25:07.095Z,12.63
2019-03-12T02:27:35.736Z,10.60
2019-03-12T02:30:05.629Z,11.23
2019-03-12T02:32:33.968Z,12.00
2019-03-12T02:35:02.159Z,11.37
2019-03-12T02:37:30.351Z,10.67
2019-03-12T02:39:58.504Z,9.63
2019-03-12T02:42:26.729Z,14.27
2019-03-12T02:44:54.866Z,9.47
2019-03-12T02:47:23.389Z,8.07
2019-03-12T02:49:52.177Z,7.70
2019-03-12T02:52:20.576Z,7.57
2019-03-12T02:54:48.871Z,9.40
2019-03-12T02:57:17.356Z,8.73
2019-03-12T02:59:45.537Z,8.03
2019-03-12T03:02:13.714Z,9.60
2019-03-12T03:04:42.281Z,9.77
2019-03-12T03:07:12.107Z,8.67
2019-03-12T03:09:40.750Z,10.50
2019-03-12T03:12:09.383Z,9.53
2019-03-12T03:14:37.882Z,9.97
2019-03-12T03:17:07.269Z,9.07
2019-03-12T03:19:35.460Z,8.97
2019-03-12T03:22:03.642Z,9.70
2019-03-12T03:24:31.795Z,11.53
2019-03-12T03:27:00.067Z,11.07
2019-03-12T03:29:28.297Z,11.73
2019-03-12T03:31:56.645Z,12.23
2019-03-12T03:34:28.055Z,12.73
2019-03-12T03:36:54.903Z,13.40
2019-03-12T03:39:23.627Z,11.53
2019-03-12T03:41:52.179Z,12.67
2019-03-12T03:44:20.354Z,12.97
2019-03-12T03:46:48.766Z,12.33
2019-03-12T03:49:17.401Z,13.67
2019-03-12T03:51:45.556Z,13.30
2019-03-12T03:54:13.879Z,13.60
2019-03-12T03:56:42.095Z,15.50
2019-03-12T03:59:10.512Z,12.30
2019-03-12T04:01:38.861Z,11.20
2019-03-12T04:04:07.045Z,11.77
2019-03-12T04:06:35.183Z,12.37
2019-03-12T04:09:04.723Z,12.20
2019-03-12T04:11:34.148Z,10.73
2019-03-12T04:14:02.418Z,12.17
2019-03-12T04:16:30.558Z,13.30
2019-03-12T04:18:58.998Z,11.90
2019-03-12T04:21:27.143Z,12.37
2019-03-12T04:23:55.310Z,13.20
2019-03-12T04:26:23.529Z,15.03
2019-03-12T04:28:51.705Z,11.83
2019-03-12T04:31:20.058Z,15.97
2019-03-12T04:33:52.927Z,13.73
2019-03-12T04:36:21.189Z,18.77
2019-03-12T04:38:49.436Z,16.93
2019-03-12T04:41:18.077Z,14.63
2019-03-12T04:43:46.225Z,12.60
2019-03-12T04:46:14.363Z,13.93
2019-03-12T04:48:42.873Z,14.23
2019-03-12T04:51:11.049Z,12.83
2019-03-12T04:53:39.265Z,16.47
2019-03-12T04:56:07.570Z,16.30
2019-03-12T04:58:35.751Z,15.10
2019-03-12T05:01:04.419Z,13.67
2019-03-12T05:03:32.699Z,14.33
2019-03-12T05:06:00.856Z,13.73
2019-03-12T05:08:29.299Z,13.67
2019-03-12T05:10:57.517Z,13.53
2019-03-12T05:13:26.958Z,13.07
2019-03-12T05:15:55.195Z,14.20
2019-03-12T05:18:23.636Z,14.40
2019-03-12T05:20:52.258Z,13.70
2019-03-12T05:23:20.444Z,16.33
2019-03-12T05:25:48.796Z,14.20
2019-03-12T05:28:17.142Z,15.40
2019-03-12T05:30:45.412Z,15.07
2019-03-12T05:33:13.768Z,14.50
2019-03-12T05:35:42.180Z,14.63
2019-03-12T05:38:10.320Z,13.40
2019-03-12T05:40:38.529Z,16.47
2019-03-12T05:43:07.162Z,17.23
2019-03-12T05:45:35.620Z,17.95
2019-03-12T05:48:03.935Z,13.83
2019-03-12T05:50:32.209Z,15.73
2019-03-12T05:53:05.600Z,18.03
2019-03-12T05:55:34.495Z,12.70
2019-03-12T05:58:02.632Z,12.90
2019-03-12T06:00:30.976Z,12.30
2019-03-12T06:02:59.846Z,22.17
2019-03-12T06:05:28.152Z,19.00
2019-03-12T06:07:56.792Z,19.27
2019-03-12T06:10:25.377Z,20.70
2019-03-12T06:12:53.778Z,19.50
2019-03-12T06:15:24.546Z,20.30
2019-03-12T06:17:53.343Z,21.83
2019-03-12T06:20:21.495Z,19.13
2019-03-12T06:22:49.822Z,18.80
2019-03-12T06:25:18.417Z,17.87
2019-03-12T06:27:47.211Z,11.70
2019-03-12T06:30:16.256Z,14.63
2019-03-12T06:32:49.179Z,17.52
2019-03-12T06:35:22.159Z,16.67
2019-03-12T06:37:58.262Z,13.47
2019-03-12T06:40:37.095Z,12.87
2019-03-12T06:43:16.261Z,13.23
2019-03-12T06:45:46.489Z,11.43
2019-03-12T06:48:34.628Z,11.13
2019-03-12T06:51:07.500Z,21.00
2019-03-12T06:53:37.419Z,13.63
2019-03-12T06:56:25.560Z,14.43
2019-03-12T06:59:04.595Z,12.73
2019-03-12T07:01:40.305Z,13.17
2019-03-12T07:04:10.259Z,10.20
2019-03-12T07:07:00.901Z,11.10
2019-03-12T07:09:47.130Z,12.43
2019-03-12T07:12:16.935Z,9.13
2019-03-12T07:14:46.734Z,8.67
2019-03-12T07:17:27.252Z,7.10
2019-03-12T07:20:15.327Z,7.07
2019-03-12T07:23:01.547Z,7.47
2019-03-12T07:25:50.699Z,8.70
2019-03-12T07:28:22.837Z,7.10
2019-03-12T07:30:55.593Z,26.07
2019-03-12T07:33:25.766Z,12.07
2019-03-12T07:36:04.405Z,10.77
2019-03-12T07:38:46.835Z,12.87
2019-03-12T07:41:30.348Z,10.23
2019-03-12T07:44:00.498Z,12.30
2019-03-12T07:46:32.992Z,15.20
2019-03-12T07:49:02.816Z,16.07
2019-03-12T07:51:38.210Z,23.03
2019-03-12T07:54:23.474Z,53.47
2019-03-12T07:57:09.973Z,39.70
2019-03-12T07:59:57.976Z,25.57
2019-03-12T08:02:43.847Z,17.83
2019-03-12T08:05:19.657Z,15.00
2019-03-12T08:07:49.481Z,12.50
2019-03-12T08:10:33.591Z,9.33
2019-03-12T08:13:11.290Z,9.70
2019-03-12T08:15:44.071Z,9.07
2019-03-12T08:18:18.065Z,8.13
2019-03-12T08:20:50.973Z,8.33
2019-03-12T08:23:20.889Z,8.33
2019-03-12T08:25:56.411Z,9.53
2019-03-12T08:28:35.514Z,8.97
2019-03-12T08:31:11.363Z,9.90
2019-03-12T08:33:50.580Z,8.60
2019-03-12T08:36:29.271Z,7.87
2019-03-12T08:39:14.460Z,7.87
2019-03-12T08:41:56.449Z,6.67
2019-03-12T08:44:32.319Z,6.73
2019-03-12T08:47:20.084Z,6.43
2019-03-12T08:50:06.382Z,7.30
2019-03-12T08:52:36.277Z,7.40
2019-03-12T08:55:07.786Z,5.63
2019-03-12T08:57:40.875Z,5.83
2019-03-12T09:00:17.952Z,4.93
2019-03-12T09:02:56.876Z,4.53
2019-03-12T09:05:30.089Z,4.80
2019-03-12T09:07:59.956Z,6.77
2019-03-12T09:10:33.029Z,6.83
2019-03-12T09:13:05.612Z,6.17
2019-03-12T09:15:54.217Z,7.70
2019-03-12T09:18:41.555Z,8.40
2019-03-12T09:21:17.190Z,9.07
2019-03-12T09:23:59.597Z,9.00
2019-03-12T09:26:32.658Z,9.00
2019-03-12T09:29:03.755Z,10.07
2019-03-12T09:31:45.679Z,9.50
2019-03-12T09:34:21.158Z,9.97
2019-03-12T09:37:06.118Z,9.77
2019-03-12T09:39:36.143Z,9.60
2019-03-12T09:42:21.334Z,9.77
2019-03-12T09:45:08.124Z,9.20
2019-03-12T09:47:41.093Z,10.67
2019-03-12T09:50:26.264Z,11.17
2019-03-12T09:53:08.583Z,12.77
2019-03-12T09:55:42.470Z,11.70
2019-03-12T09:58:15.280Z,10.30
2019-03-12T10:00:49.204Z,10.73
2019-03-12T10:03:25.213Z,10.60
2019-03-12T10:06:03.960Z,13.53
2019-03-12T10:08:39.830Z,9.67
2019-03-12T10:11:21.882Z,11.10
2019-03-12T10:14:06.884Z,12.23
2019-03-12T10:16:42.568Z,12.17
2019-03-12T10:19:16.443Z,13.93
2019-03-12T10:21:48.952Z,14.13
2019-03-12T10:24:18.787Z,13.43
2019-03-12T10:26:54.774Z,11.53
2019-03-12T10:29:24.975Z,11.33
2019-03-12T10:31:55.120Z,10.30
2019-03-12T10:34:42.108Z,11.20
2019-03-12T10:37:32.265Z,11.55
2019-03-12T10:40:02.946Z,11.10
2019-03-12T10:42:37.051Z,10.40
2019-03-12T10:45:08.673Z,13.40
2019-03-12T10:47:41.273Z,14.10
2019-03-12T10:50:09.867Z,9.10
2019-03-12T10:52:38.531Z,9.53
2019-03-12T10:55:12.927Z,10.70
2019-03-12T10:57:38.076Z,10.47
2019-03-12T11:00:13.630Z,8.10
2019-03-12T11:02:42.196Z,8.30
2019-03-12T11:05:10.866Z,9.03
2019-03-12T11:07:39.164Z,9.60
2019-03-12T11:10:14.373Z,14.00
2019-03-12T11:12:42.839Z,10.83
2019-03-12T11:15:11.775Z,10.67
2019-03-12T11:17:49.584Z,9.53
2019-03-12T11:20:15.372Z,10.03
2019-03-12T11:22:43.535Z,9.23
2019-03-12T11:25:11.692Z,12.73
2019-03-12T11:27:40.023Z,13.80
2019-03-12T11:30:09.816Z,7.63
2019-03-12T11:32:38.074Z,6.80
2019-03-12T11:35:07.211Z,7.60
2019-03-12T11:37:35.754Z,6.50
2019-03-12T11:40:05.570Z,5.97
2019-03-12T11:42:33.999Z,8.60
2019-03-12T11:45:02.300Z,7.27
2019-03-12T11:47:30.814Z,6.50
2019-03-12T11:49:59.144Z,6.70
2019-03-12T11:52:27.272Z,6.90
2019-03-12T11:54:55.828Z,6.60
2019-03-12T11:57:24.141Z,6.60
2019-03-12T11:59:52.608Z,8.33
2019-03-12T12:02:21.057Z,12.00
2019-03-12T12:04:49.332Z,7.67
2019-03-12T12:07:17.610Z,8.07
2019-03-12T12:09:45.853Z,6.97
2019-03-12T12:12:14.114Z,6.30
2019-03-12T12:14:42.261Z,5.97
2019-03-12T12:17:10.899Z,5.40
2019-03-12T12:19:39.054Z,5.33
2019-03-12T12:22:08.209Z,6.03
2019-03-12T12:24:36.452Z,5.80
2019-03-12T12:27:04.735Z,6.37
2019-03-12T12:29:33.089Z,6.27
2019-03-12T12:32:01.269Z,6.50
2019-03-12T12:34:29.468Z,6.37
2019-03-12T12:36:57.733Z,6.80
2019-03-12T12:39:26.033Z,7.33
2019-03-12T12:41:54.197Z,8.97
2019-03-12T12:44:22.331Z,8.77
2019-03-12T12:46:50.484Z,8.17
2019-03-12T12:49:18.665Z,8.80
2019-03-12T12:51:46.852Z,7.83
2019-03-12T12:54:15.274Z,8.63
2019-03-12T12:56:44.489Z,9.07
2019-03-12T12:59:12.724Z,8.13
2019-03-12T13:01:40.872Z,6.13
2019-03-12T13:04:09.067Z,7.93
2019-03-12T13:06:37.283Z,7.73
2019-03-12T13:09:05.721Z,7.27
2019-03-12T13:11:33.941Z,7.40
2019-03-12T13:14:02.217Z,7.90
2019-03-12T13:16:30.770Z,7.53
2019-03-12T13:18:58.928Z,7.93
2019-03-12T13:21:27.208Z,7.67
2019-03-12T13:23:56.450Z,7.93
2019-03-12T13:26:26.293Z,7.70
2019-03-12T13:28:56.835Z,8.53
2019-03-12T13:31:25.585Z,18.10
2019-03-12T13:33:54.433Z,6.97
2019-03-12T13:36:22.959Z,6.70
2019-03-12T13:38:51.597Z,6.77
2019-03-12T13:41:20.782Z,5.50
2019-03-12T13:43:49.223Z,5.70
2019-03-12T13:46:17.681Z,6.33
2019-03-12T13:48:46.419Z,6.60
2019-03-12T13:51:15.460Z,7.10
2019-03-12T13:53:43.852Z,6.20
2019-03-12T13:56:12.103Z,8.50
2019-03-12T13:58:40.253Z,9.83
2019-03-12T14:01:08.746Z,6.00
2019-03-12T14:03:37.427Z,5.30
2019-03-12T14:06:05.624Z,5.77
2019-03-12T14:08:34.175Z,7.07
2019-03-12T14:11:02.352Z,6.73
2019-03-12T14:13:30.743Z,6.53
2019-03-12T14:15:58.926Z,6.33
2019-03-12T14:18:27.253Z,8.00
2019-03-12T14:20:57.059Z,7.20
2019-03-12T14:23:36.364Z,6.47
2019-03-12T14:26:05.086Z,6.10
2019-03-12T14:28:33.497Z,7.73
2019-03-12T14:31:01.838Z,6.60
2019-03-12T14:33:30.025Z,9.67
2019-03-12T14:35:58.322Z,121.37
2019-03-12T14:38:26.655Z,27.60
2019-03-12T14:40:55.266Z,11.27
2019-03-12T14:43:23.745Z,8.37
2019-03-12T14:45:51.932Z,8.00
2019-03-12T14:48:39.129Z,10.87
2019-03-12T14:51:14.915Z,8.93
2019-03-12T14:53:44.222Z,11.60
2019-03-12T14:56:12.667Z,9.73
2019-03-12T14:58:41.663Z,7.80
2019-03-12T15:01:09.891Z,10.43
2019-03-12T15:03:38.460Z,17.10
2019-03-12T15:06:06.643Z,17.03
2019-03-12T15:08:37.486Z,13.10
2019-03-12T15:11:05.903Z,12.33
2019-03-12T15:13:34.256Z,9.97
2019-03-12T15:16:02.458Z,11.00
2019-03-12T15:18:30.956Z,10.70
2019-03-12T15:20:59.200Z,11.60
2019-03-12T15:23:27.446Z,15.77
2019-03-12T15:25:55.632Z,15.10
2019-03-12T15:28:25.044Z,11.43
2019-03-12T15:30:53.534Z,10.20
2019-03-12T15:33:21.718Z,14.53
2019-03-12T15:35:49.947Z,13.00
2019-03-12T15:38:18.211Z,12.50
2019-03-12T15:40:46.405Z,9.43
2019-03-12T15:43:14.818Z,8.77
2019-03-12T15:45:42.955Z,7.93
2019-03-12T15:48:11.115Z,7.60
2019-03-12T15:50:39.712Z,8.80
2019-03-12T15:53:07.914Z,10.27
2019-03-12T15:55:36.483Z,7.77
2019-03-12T15:58:04.836Z,7.80
2019-03-12T16:00:33.243Z,9.90
2019-03-12T16:03:01.460Z,12.80
2019-03-12T16:05:30.594Z,30.83
2019-03-12T16:08:00.267Z,31.03
2019-03-12T16:10:28.608Z,34.60
2019-03-12T16:12:57.400Z,33.30
2019-03-12T16:15:25.866Z,31.93
2019-03-12T16:17:54.296Z,30.43
2019-03-12T16:20:23.546Z,33.57
2019-03-12T16:22:52.072Z,35.60
2019-03-12T16:25:20.714Z,36.73
2019-03-12T16:27:49.179Z,38.17
2019-03-12T16:30:20.133Z,33.07
2019-03-12T16:32:48.408Z,50.37
2019-03-12T16:35:16.674Z,41.90
2019-03-12T16:37:44.939Z,40.60
2019-03-12T16:40:16.692Z,52.03
2019-03-12T16:42:45.285Z,71.67
2019-03-12T16:45:15.113Z,56.57
2019-03-12T16:47:43.327Z,41.63
2019-03-12T16:50:13.285Z,51.57
2019-03-12T16:52:41.611Z,52.47
2019-03-12T16:55:10.893Z,51.70
2019-03-12T16:57:39.349Z,40.77
2019-03-12T17:00:11.683Z,38.33
2019-03-12T17:02:39.987Z,49.47
2019-03-12T17:05:09.822Z,53.77
2019-03-12T17:07:38.386Z,40.57
2019-03-12T17:10:11.202Z,40.87
2019-03-12T17:12:39.798Z,55.87
2019-03-12T17:15:11.519Z,58.13
2019-03-12T17:17:40.578Z,73.93
2019-03-12T17:20:10.615Z,61.93
2019-03-12T17:22:39.505Z,51.13
2019-03-12T17:25:10.040Z,67.47
2019-03-12T17:27:38.733Z,73.03
2019-03-12T17:30:08.508Z,62.77
2019-03-12T17:32:37.930Z,56.63
2019-03-12T17:35:07.842Z,53.83
2019-03-12T17:37:36.080Z,53.93
2019-03-12T17:40:05.886Z,68.47
2019-03-12T17:42:34.141Z,124.50
2019-03-12T17:45:09.059Z,108.67
2019-03-12T17:47:38.758Z,107.80
2019-03-12T17:50:11.266Z,107.43
2019-03-12T17:52:39.458Z,113.87
2019-03-12T17:55:09.199Z,94.50
2019-03-12T17:57:37.674Z,102.73
2019-03-12T18:00:08.813Z,127.27
2019-03-12T18:02:42.562Z,92.70
2019-03-12T18:05:08.336Z,93.87
2019-03-12T18:07:36.762Z,79.67
2019-03-12T18:10:06.462Z,92.07
2019-03-12T18:12:34.905Z,64.20
2019-03-12T18:15:04.072Z,56.13
2019-03-12T18:17:32.591Z,54.80
2019-03-12T18:20:01.077Z,58.83
2019-03-12T18:22:29.439Z,58.57
2019-03-12T18:24:58.242Z,59.67
2019-03-12T18:27:27.522Z,60.60
2019-03-12T18:29:55.786Z,59.07
2019-03-12T18:32:24.133Z,61.37
2019-03-12T18:34:53.755Z,62.73
2019-03-12T18:37:21.904Z,67.77
2019-03-12T18:39:50.389Z,63.37
2019-03-12T18:42:18.817Z,64.83
2019-03-12T18:44:47.119Z,67.47
2019-03-12T18:47:18.898Z,69.43
2019-03-12T18:49:46.160Z,66.47
2019-03-12T18:52:15.210Z,75.30
2019-03-12T18:54:43.891Z,77.80
2019-03-12T18:57:12.827Z,76.40
2019-03-12T18:59:40.940Z,75.23
2019-03-12T19:02:09.333Z,76.63
2019-03-12T19:04:37.496Z,77.23
2019-03-12T19:07:06.659Z,78.47
2019-03-12T19:09:35.389Z,72.90
2019-03-12T19:12:03.548Z,76.23
2019-03-12T19:14:32.001Z,82.30
2019-03-12T19:17:00.278Z,72.60
2019-03-12T19:19:28.462Z,79.70
2019-03-12T19:21:56.890Z,90.30
2019-03-12T19:24:25.214Z,78.97
2019-03-12T19:26:53.718Z,85.73
2019-03-12T19:29:22.194Z,83.37
2019-03-12T19:31:52.117Z,69.20
2019-03-12T19:34:22.078Z,70.97
2019-03-12T19:36:51.821Z,83.37
2019-03-12T19:39:20.419Z,112.93
2019-03-12T19:41:48.953Z,162.07
2019-03-12T19:44:17.560Z,190.33
2019-03-12T19:46:45.814Z,179.77
2019-03-12T19:49:14.021Z,213.90
2019-03-12T19:51:42.616Z,256.70
2019-03-12T19:54:11.398Z,237.40
2019-03-12T19:56:40.954Z,280.90
2019-03-12T19:59:09.567Z,261.73
2019-03-12T20:01:38.580Z,198.80
2019-03-12T20:04:07.655Z,138.73
2019-03-12T20:06:36.188Z,206.77
2019-03-12T20:09:05.845Z,210.77
2019-03-12T20:11:44.991Z,186.33
2019-03-12T20:14:20.850Z,359.10
2019-03-12T20:17:08.427Z,233.73
2019-03-12T20:19:43.806Z,159.53
2019-03-12T20:22:19.818Z,157.97
2019-03-12T20:25:06.198Z,179.87
2019-03-12T20:27:54.723Z,180.23
2019-03-12T20:30:28.110Z,131.60
2019-03-12T20:33:07.337Z,194.43
2019-03-12T20:35:53.940Z,167.93
2019-03-12T20:38:24.155Z,162.00
2019-03-12T20:41:10.990Z,151.23
2019-03-12T20:43:40.979Z,148.47
2019-03-12T20:46:13.955Z,179.60
2019-03-12T20:48:43.757Z,198.17
2019-03-12T20:51:30.062Z,198.93
2019-03-12T20:54:06.481Z,183.60
2019-03-12T20:56:53.284Z,198.23
2019-03-12T20:59:39.709Z,160.60
2019-03-12T21:02:27.896Z,207.83
2019-03-12T21:05:00.765Z,189.00
2019-03-12T21:07:33.471Z,162.10
2019-03-12T21:10:03.232Z,175.17
2019-03-12T21:12:49.735Z,217.10
2019-03-12T21:15:22.532Z,218.03
2019-03-12T21:18:04.442Z,221.27
2019-03-12T21:20:51.167Z,163.47
2019-03-12T21:23:21.284Z,183.17
2019-03-12T21:25:51.188Z,261.47
2019-03-12T21:28:24.532Z,210.30
2019-03-12T21:30:52.793Z,245.17
2019-03-12T21:33:20.989Z,238.53
2019-03-12T21:35:49.625Z,231.60
2019-03-12T21:38:17.768Z,226.30
2019-03-12T21:40:47.132Z,246.90
2019-03-12T21:43:15.675Z,260.00
2019-03-12T21:45:44.161Z,250.50
2019-03-12T21:48:12.418Z,257.57
2019-03-12T21:50:40.911Z,281.83
2019-03-12T21:53:09.396Z,215.07
2019-03-12T21:55:38.068Z,309.93
2019-03-12T21:58:06.633Z,255.37
2019-03-12T22:00:34.881Z,235.93
2019-03-12T22:03:03.225Z,219.40
2019-03-12T22:05:31.682Z,226.67
2019-03-12T22:08:00.051Z,206.83
2019-03-12T22:10:28.573Z,203.33
2019-03-12T22:12:57.030Z,189.87
2019-03-12T22:15:25.916Z,196.20
2019-03-12T22:17:54.126Z,188.47
2019-03-12T22:20:22.650Z,194.20
2019-03-12T22:23:07.934Z,196.07
2019-03-12T22:25:36.513Z,194.13
2019-03-12T22:28:04.777Z,156.77
2019-03-12T22:30:33.028Z,148.97
2019-03-12T22:33:01.452Z,150.93
2019-03-12T22:35:29.814Z,150.67
2019-03-12T22:37:58.054Z,149.30
2019-03-12T22:40:26.573Z,159.17
2019-03-12T22:42:55.819Z,163.13
2019-03-12T22:45:24.013Z,140.80
2019-03-12T22:47:52.194Z,126.97
2019-03-12T22:50:21.071Z,128.73
2019-03-12T22:52:49.364Z,132.70
2019-03-12T22:55:17.865Z,117.00
2019-03-12T22:57:46.023Z,113.17
2019-03-12T23:00:15.966Z,68.47
2019-03-12T23:02:44.411Z,75.23
2019-03-12T23:07:58.905Z,80.17
2019-03-12T23:10:28.201Z,105.37
2019-03-12T23:12:56.728Z,62.67
2019-03-12T23:15:25.705Z,59.47
2019-03-12T23:17:53.869Z,59.63
2019-03-12T23:20:34.310Z,101.57
2019-03-12T23:23:02.547Z,94.63
2019-03-12T23:25:31.229Z,99.63
2019-03-12T23:27:59.482Z,102.77
2019-03-12T23:30:28.880Z,91.47
2019-03-12T23:32:57.452Z,82.10
2019-03-12T23:35:25.712Z,88.13
2019-03-12T23:37:54.157Z,80.20
2019-03-12T23:40:22.665Z,77.83
2019-03-12T23:42:50.826Z,75.60
2019-03-12T23:45:20.097Z,68.83
2019-03-12T23:47:50.423Z,64.13
2019-03-12T23:50:18.252Z,75.63
2019-03-12T23:52:46.766Z,77.80
2019-03-12T23:55:16.359Z,84.97
2019-03-12T23:57:44.614Z,71.50
